Time;durP1;ratioP1;P1;durP2;ratioP2;P2;SDS_P1;SDS_P2;PMS_P1;PMS_P2;Temp;Humidity;BMP_temperature;BMP_pressure;BME280_temperature;BME280_humidity;BME280_pressure;Samples;Min_cycle;Max_cycle;Signal;HPM_P1;HPM_P2
2022/02/11 00:04:07;;;;;;;;;;;;;;;;;;5068820;28;19974;-71
2022/02/11 00:06:57;;;;;;;;;;;;;;;;;;5087755;28;20361;-71
2022/02/11 00:09:23;;;;;;;;;;;;;;;;;;5085382;28;19991;-71
2022/02/11 00:11:49;;;;;;;;;;;;;;;;;;5087605;28;19953;-71
2022/02/11 00:14:15;;;;;;;;;;;;;;;;;;5067566;28;19927;-71
2022/02/11 00:16:41;;;;;;;;;;;;;;;;;;5076606;28;19909;-72
2022/02/11 00:19:08;;;;;;;;;;;;;;;;;;5084904;28;19904;-72
2022/02/11 00:21:34;;;;;;;;;;;;;;;;;;5092662;28;19912;-72
2022/02/11 00:24:00;;;;;;;;;;;;;;;;;;5072743;28;19916;-72
2022/02/11 00:26:32;;;;;;;;;;;;;;;;;;5072084;28;19908;-72
2022/02/11 00:34:09;;;;;;;;;;;;;;;;;;5069456;28;19965;-72
2022/02/11 00:36:55;;;;;;;;;;;;;;;;;;5087356;28;19930;-71
2022/02/11 00:43:12;;;;;;;;;;;;;;;;;;5095947;28;19908;-72
2022/02/11 01:02:05;;;;;;;;;;;;;;;;;;5070707;28;19962;-72
2022/02/11 01:04:09;;;;;;;;;;;;;;;;;;5075201;28;19911;-71
2022/02/11 01:06:35;;;;;;;;;;;;;;;;;;5075615;28;19904;-71
2022/02/11 01:09:02;;;;;;;;;;;;;;;;;;5075717;28;19910;-71
2022/02/11 01:11:44;;;;;;;;;;;;;;;;;;5088199;28;20354;-70
2022/02/11 01:14:11;;;;;;;;;;;;;;;;;;5085399;28;19916;-71
2022/02/11 01:16:48;;;;;;;;;;;;;;;;;;5088619;28;19990;-71
2022/02/11 01:19:39;;;;;;;;;;;;;;;;;;5070247;28;19911;-71
2022/02/11 01:25:00;;;;;;;;;;;;;;;;;;5074536;28;19920;-71
2022/02/11 01:28:17;;;;;;;;;;;;;;;;;;5057312;28;20244;-71
2022/02/11 01:38:20;;;;;;;;;;;;;;;;;;5090156;28;19914;-73
2022/02/11 01:46:35;;;;;;;;;;;;;;;;;;5094600;28;19915;-71
2022/02/11 01:51:35;;;;;;;;;;;;;;;;;;5094121;28;20003;-71
2022/02/11 01:57:05;;;;;;;;;;;;;;;;;;5049565;28;19908;-71
2022/02/11 02:00:06;;;;;;;;;;;;;;;;;;5089701;28;20360;-71
2022/02/11 02:23:29;;;;;;;;;;;;;;;;;;5069282;28;19909;-71
2022/02/11 02:26:22;;;;;;;;;;;;;;;;;;5068404;28;20389;-71
2022/02/11 02:32:19;;;;;;;;;;;;;;;;;;5073741;28;19991;-71
2022/02/11 02:34:36;;;;;;;;;;;;;;;;;;5072783;28;19922;-71
2022/02/11 02:37:22;;;;;;;;;;;;;;;;;;5088190;28;19908;-70
2022/02/11 02:59:01;;;;;;;;;;;;;;;;;;5093120;28;19915;-70
2022/02/11 03:01:35;;;;;;;;;;;;;;;;;;5093590;28;19987;-71
2022/02/11 03:15:37;;;;;;;;;;;;;;;;;;5093184;28;19934;-70
2022/02/11 04:21:12;;;;;;;;;;;;;;;;;;5095811;28;19914;-70
2022/02/11 04:27:29;;;;;;;;;;;;;;;;;;5096242;28;19919;-70
2022/02/11 04:56:37;;;;;;;;;;;;;;;;;;5070633;28;20561;-70
2022/02/11 05:01:48;;;;;;;;;;;;;;;;;;5070149;28;19915;-65
2022/02/11 05:04:14;;;;;;;;;;;;;;;;;;5072967;28;19905;-71
2022/02/11 05:06:40;;;;;;;;;;;;;;;;;;5075520;28;19943;-69
2022/02/11 05:09:06;;;;;;;;;;;;;;;;;;5075575;28;20083;-69
2022/02/11 05:11:33;;;;;;;;;;;;;;;;;;5095112;28;19908;-69
2022/02/11 05:13:59;;;;;;;;;;;;;;;;;;5095397;28;19919;-70
2022/02/11 05:16:25;;;;;;;;;;;;;;;;;;5092780;28;20450;-70
2022/02/11 05:18:51;;;;;;;;;;;;;;;;;;5090265;28;19940;-70
2022/02/11 05:21:18;;;;;;;;;;;;;;;;;;5090395;28;19999;-70
2022/02/11 05:23:44;;;;;;;;;;;;;;;;;;5090563;28;20259;-69
2022/02/11 05:26:10;;;;;;;;;;;;;;;;;;5091189;28;19916;-67
2022/02/11 05:28:36;;;;;;;;;;;;;;;;;;5093281;28;20276;-67
2022/02/11 05:31:03;;;;;;;;;;;;;;;;;;5075000;28;20416;-71
2022/02/11 05:33:29;;;;;;;;;;;;;;;;;;5082337;28;19923;-71
2022/02/11 05:35:55;;;;;;;;;;;;;;;;;;5084602;28;19911;-67
2022/02/11 05:38:22;;;;;;;;;;;;;;;;;;5093109;28;19908;-69
2022/02/11 05:40:48;;;;;;;;;;;;;;;;;;5089943;28;20578;-72
2022/02/11 05:43:14;;;;;;;;;;;;;;;;;;5090005;28;19911;-69
2022/02/11 05:45:41;;;;;;;;;;;;;;;;;;5090374;28;20318;-69
2022/02/11 05:48:07;;;;;;;;;;;;;;;;;;5091248;28;19914;-71
2022/02/11 05:50:33;;;;;;;;;;;;;;;;;;5094763;28;19954;-70
2022/02/11 05:52:59;;;;;;;;;;;;;;;;;;5094216;28;19961;-69
2022/02/11 05:55:25;;;;;;;;;;;;;;;;;;5095087;28;19915;-69
2022/02/11 05:57:52;;;;;;;;;;;;;;;;;;5094854;28;19914;-69
2022/02/11 06:00:18;;;;;;;;;;;;;;;;;;5093110;28;20493;-69
2022/02/11 06:02:44;;;;;;;;;;;;;;;;;;5089483;28;20406;-69
2022/02/11 06:05:11;;;;;;;;;;;;;;;;;;5089549;28;19904;-69
2022/02/11 06:07:37;;;;;;;;;;;;;;;;;;5089449;28;19928;-69
2022/02/11 06:10:03;;;;;;;;;;;;;;;;;;5089989;28;19904;-69
2022/02/11 06:12:30;;;;;;;;;;;;;;;;;;5088694;28;19904;-69
2022/02/11 06:14:56;;;;;;;;;;;;;;;;;;5074358;28;19913;-69
2022/02/11 06:17:23;;;;;;;;;;;;;;;;;;5074333;28;19905;-69
2022/02/11 06:19:49;;;;;;;;;;;;;;;;;;5074049;28;19904;-69
2022/02/11 06:22:15;;;;;;;;;;;;;;;;;;5072865;28;19999;-69
2022/02/11 06:24:41;;;;;;;;;;;;;;;;;;5068738;28;19911;-70
2022/02/11 06:27:08;;;;;;;;;;;;;;;;;;5068385;28;19919;-71
2022/02/11 06:29:35;;;;;;;;;;;;;;;;;;5086012;28;19914;-69
2022/02/11 06:32:02;;;;;;;;;;;;;;;;;;5089643;28;19912;-67
2022/02/11 06:34:28;;;;;;;;;;;;;;;;;;5094145;28;20324;-69
2022/02/11 06:36:54;;;;;;;;;;;;;;;;;;5093962;28;19912;-67
2022/02/11 06:39:24;;;;;;;;;;;;;;;;;;5094194;28;19919;-71
2022/02/11 06:41:50;;;;;;;;;;;;;;;;;;5093251;28;19977;-69
2022/02/11 06:44:17;;;;;;;;;;;;;;;;;;5092962;28;20420;-67
2022/02/11 06:46:43;;;;;;;;;;;;;;;;;;5088819;28;19919;-69
2022/02/11 06:49:09;;;;;;;;;;;;;;;;;;5088408;28;19912;-68
2022/02/11 06:51:35;;;;;;;;;;;;;;;;;;5088076;28;19912;-68
2022/02/11 06:54:02;;;;;;;;;;;;;;;;;;5079383;28;19959;-66
2022/02/11 06:56:28;;;;;;;;;;;;;;;;;;5073375;28;19966;-66
2022/02/11 06:58:55;;;;;;;;;;;;;;;;;;5085070;28;19912;-68
2022/02/11 07:01:21;;;;;;;;;;;;;;;;;;5073284;28;20378;-67
2022/02/11 07:03:47;;;;;;;;;;;;;;;;;;5079640;28;20002;-68
2022/02/11 07:06:13;;;;;;;;;;;;;;;;;;5076569;28;19951;-68
2022/02/11 07:08:40;;;;;;;;;;;;;;;;;;5066432;28;19909;-68
2022/02/11 07:11:06;;;;;;;;;;;;;;;;;;5066523;28;19912;-68
2022/02/11 07:13:32;;;;;;;;;;;;;;;;;;5066344;28;19916;-68
2022/02/11 07:15:58;;;;;;;;;;;;;;;;;;5065874;28;19908;-68
2022/02/11 07:18:25;;;;;;;;;;;;;;;;;;5081525;28;19908;-68
2022/02/11 07:20:51;;;;;;;;;;;;;;;;;;5078531;28;19908;-68
2022/02/11 07:23:17;;;;;;;;;;;;;;;;;;5089124;28;19912;-68
2022/02/11 07:25:43;;;;;;;;;;;;;;;;;;5073018;28;19915;-68
2022/02/11 07:28:10;;;;;;;;;;;;;;;;;;5072805;28;19908;-68
2022/02/11 07:30:36;;;;;;;;;;;;;;;;;;5080193;28;20053;-68
2022/02/11 07:33:02;;;;;;;;;;;;;;;;;;5073061;28;19991;-68
2022/02/11 07:35:29;;;;;;;;;;;;;;;;;;5067957;28;20034;-68
2022/02/11 07:37:55;;;;;;;;;;;;;;;;;;5072556;28;19915;-68
2022/02/11 07:40:21;;;;;;;;;;;;;;;;;;5079677;28;19915;-68
2022/02/11 07:42:51;;;;;;;;;;;;;;;;;;5072783;28;20274;-68
2022/02/11 07:45:19;;;;;;;;;;;;;;;;;;5072554;28;19999;-68
2022/02/11 07:47:45;;;;;;;;;;;;;;;;;;5071982;28;19908;-68
2022/02/11 07:50:11;;;;;;;;;;;;;;;;;;5072106;28;19963;-68
2022/02/11 07:52:37;;;;;;;;;;;;;;;;;;5078850;28;19953;-68
2022/02/11 07:55:04;;;;;;;;;;;;;;;;;;5084296;28;20019;-68
2022/02/11 07:57:30;;;;;;;;;;;;;;;;;;5085400;28;19951;-68
2022/02/11 07:59:56;;;;;;;;;;;;;;;;;;5087196;28;19908;-68
2022/02/11 08:02:22;;;;;;;;;;;;;;;;;;5081642;28;19916;-68
2022/02/11 08:04:48;;;;;;;;;;;;;;;;;;5087727;28;20351;-68
2022/02/11 08:07:15;;;;;;;;;;;;;;;;;;5076060;28;19962;-67
2022/02/11 08:09:41;;;;;;;;;;;;;;;;;;5092732;28;19911;-68
2022/02/11 08:12:07;;;;;;;;;;;;;;;;;;5085690;28;20283;-68
2022/02/11 08:14:33;;;;;;;;;;;;;;;;;;5068536;28;19916;-70
2022/02/11 08:17:00;;;;;;;;;;;;;;;;;;5066755;28;19908;-70
2022/02/11 08:19:26;;;;;;;;;;;;;;;;;;5067218;28;19908;-70
2022/02/11 08:21:52;;;;;;;;;;;;;;;;;;5066844;28;19909;-70
2022/02/11 08:24:18;;;;;;;;;;;;;;;;;;5089994;28;19947;-70
2022/02/11 08:26:45;;;;;;;;;;;;;;;;;;5092329;28;19904;-70
2022/02/11 08:29:13;;;;;;;;;;;;;;;;;;5091397;28;19908;-70
2022/02/11 08:31:39;;;;;;;;;;;;;;;;;;5090699;28;20000;-70
2022/02/11 08:34:05;;;;;;;;;;;;;;;;;;5076316;28;19916;-69
2022/02/11 08:36:31;;;;;;;;;;;;;;;;;;5068829;28;20375;-70
2022/02/11 08:38:58;;;;;;;;;;;;;;;;;;5080490;28;19908;-70
2022/02/11 08:41:24;;;;;;;;;;;;;;;;;;5084379;28;20777;-69
2022/02/11 08:43:50;;;;;;;;;;;;;;;;;;5066824;28;19919;-69
2022/02/11 08:46:16;;;;;;;;;;;;;;;;;;5069339;28;19996;-69
2022/02/11 08:48:43;;;;;;;;;;;;;;;;;;5072011;28;19908;-69
2022/02/11 08:51:09;;;;;;;;;;;;;;;;;;5072089;28;19956;-70
2022/02/11 08:53:35;;;;;;;;;;;;;;;;;;5073654;28;20667;-70
2022/02/11 08:56:03;;;;;;;;;;;;;;;;;;5092165;28;19972;-70
2022/02/11 08:58:29;;;;;;;;;;;;;;;;;;5069313;28;19995;-70
2022/02/11 09:00:55;;;;;;;;;;;;;;;;;;5067148;28;20299;-69
2022/02/11 09:03:22;;;;;;;;;;;;;;;;;;5080227;28;20361;-69
2022/02/11 09:05:48;;;;;;;;;;;;;;;;;;5077039;28;19916;-69
2022/02/11 09:08:15;;;;;;;;;;;;;;;;;;5080852;28;20355;-69
2022/02/11 09:10:41;;;;;;;;;;;;;;;;;;5093081;28;19908;-70
2022/02/11 09:13:07;;;;;;;;;;;;;;;;;;5095002;28;19962;-69
2022/02/11 09:15:34;;;;;;;;;;;;;;;;;;5087722;28;19919;-69
2022/02/11 09:18:00;;;;;;;;;;;;;;;;;;5075120;28;19912;-69
2022/02/11 09:20:26;;;;;;;;;;;;;;;;;;5072885;28;19962;-70
2022/02/11 09:22:53;;;;;;;;;;;;;;;;;;5070906;28;19912;-70
2022/02/11 09:25:19;;;;;;;;;;;;;;;;;;5084656;28;20274;-69
2022/02/11 09:27:45;;;;;;;;;;;;;;;;;;5080805;28;20335;-69
2022/02/11 09:30:11;;;;;;;;;;;;;;;;;;5075821;28;19912;-69
2022/02/11 09:32:38;;;;;;;;;;;;;;;;;;5080984;28;19953;-69
2022/02/11 09:35:04;;;;;;;;;;;;;;;;;;5094846;28;20000;-69
2022/02/11 09:37:30;;;;;;;;;;;;;;;;;;5084488;28;19916;-69
2022/02/11 09:39:56;;;;;;;;;;;;;;;;;;5074664;28;20058;-70
2022/02/11 09:42:23;;;;;;;;;;;;;;;;;;5077510;28;19961;-69
2022/02/11 09:44:49;;;;;;;;;;;;;;;;;;5087666;28;19904;-69
2022/02/11 09:47:16;;;;;;;;;;;;;;;;;;5069232;28;19954;-70
2022/02/11 09:49:44;;;;;;;;;;;;;;;;;;5069427;28;20023;-70
2022/02/11 09:52:10;;;;;;;;;;;;;;;;;;5072900;28;19969;-70
2022/02/11 09:54:37;;;;;;;;;;;;;;;;;;5094168;28;19916;-69
2022/02/11 09:57:03;;;;;;;;;;;;;;;;;;5094360;28;19939;-69
2022/02/11 09:59:29;;;;;;;;;;;;;;;;;;5092898;28;19908;-69
2022/02/11 10:01:55;;;;;;;;;;;;;;;;;;5092920;28;19916;-69
2022/02/11 10:04:22;;;;;;;;;;;;;;;;;;5074001;28;20370;-69
2022/02/11 10:06:50;;;;;;;;;;;;;;;;;;5071650;28;19905;-69
2022/02/11 10:09:16;;;;;;;;;;;;;;;;;;5074036;28;19935;-69
2022/02/11 10:11:43;;;;;;;;;;;;;;;;;;5068727;28;19999;-67
2022/02/11 10:14:09;;;;;;;;;;;;;;;;;;5089448;28;19954;-67
2022/02/11 10:16:35;;;;;;;;;;;;;;;;;;5093799;28;19911;-67
2022/02/11 10:19:02;;;;;;;;;;;;;;;;;;5093505;28;20343;-69
2022/02/11 10:21:31;;;;;;;;;;;;;;;;;;5086893;28;19908;-69
2022/02/11 10:23:57;;;;;;;;;;;;;;;;;;5074101;28;19995;-69
2022/02/11 10:26:25;;;;;;;;;;;;;;;;;;5073133;28;19952;-69
2022/02/11 10:28:52;;;;;;;;;;;;;;;;;;5068473;28;19909;-69
2022/02/11 10:31:19;;;;;;;;;;;;;;;;;;5068718;28;20039;-69
2022/02/11 10:33:46;;;;;;;;;;;;;;;;;;5068294;28;20011;-70
2022/02/11 10:36:12;;;;;;;;;;;;;;;;;;5068528;28;20016;-71
2022/02/11 10:38:38;;;;;;;;;;;;;;;;;;5086092;28;19958;-69
2022/02/11 10:41:04;;;;;;;;;;;;;;;;;;5090347;28;19908;-70
2022/02/11 10:43:31;;;;;;;;;;;;;;;;;;5073551;28;20259;-70
2022/02/11 10:46:01;;;;;;;;;;;;;;;;;;5073557;28;19912;-69
2022/02/11 10:48:28;;;;;;;;;;;;;;;;;;5072482;28;19908;-69
2022/02/11 10:50:57;;;;;;;;;;;;;;;;;;5068157;28;20336;-69
2022/02/11 10:53:23;;;;;;;;;;;;;;;;;;5082679;28;19908;-70
2022/02/11 10:55:49;;;;;;;;;;;;;;;;;;5088024;28;20299;-70
2022/02/11 10:58:15;;;;;;;;;;;;;;;;;;5088036;28;19914;-69
2022/02/11 11:00:42;;;;;;;;;;;;;;;;;;5093215;28;19908;-69
2022/02/11 11:03:10;;;;;;;;;;;;;;;;;;5082121;28;19912;-70
2022/02/11 11:05:36;;;;;;;;;;;;;;;;;;5093058;28;19911;-69
2022/02/11 11:08:04;;;;;;;;;;;;;;;;;;5093113;28;19915;-70
2022/02/11 11:10:31;;;;;;;;;;;;;;;;;;5084528;28;20342;-70
2022/02/11 11:12:57;;;;;;;;;;;;;;;;;;5067799;28;19912;-69
2022/02/11 11:15:23;;;;;;;;;;;;;;;;;;5067838;28;19952;-69
2022/02/11 11:17:49;;;;;;;;;;;;;;;;;;5067453;28;19908;-69
2022/02/11 11:20:16;;;;;;;;;;;;;;;;;;5067798;28;19904;-69
2022/02/11 11:22:42;;;;;;;;;;;;;;;;;;5072453;28;19964;-69
2022/02/11 11:25:08;;;;;;;;;;;;;;;;;;5072021;28;20021;-69
2022/02/11 11:27:35;;;;;;;;;;;;;;;;;;5076374;28;20236;-69
2022/02/11 11:30:01;;;;;;;;;;;;;;;;;;5092651;28;19995;-69
2022/02/11 11:32:27;;;;;;;;;;;;;;;;;;5092742;28;19915;-69
2022/02/11 11:34:54;;;;;;;;;;;;;;;;;;5069404;28;19916;-69
2022/02/11 11:37:20;;;;;;;;;;;;;;;;;;5081608;28;19963;-69
2022/02/11 11:39:46;;;;;;;;;;;;;;;;;;5087525;28;20563;-70
2022/02/11 11:42:12;;;;;;;;;;;;;;;;;;5077977;28;20371;-69
2022/02/11 11:44:39;;;;;;;;;;;;;;;;;;5091740;28;19947;-69
2022/02/11 11:47:05;;;;;;;;;;;;;;;;;;5092323;28;19912;-69
2022/02/11 11:49:31;;;;;;;;;;;;;;;;;;5092880;28;19972;-69
2022/02/11 11:51:57;;;;;;;;;;;;;;;;;;5088346;28;20394;-69
2022/02/11 11:54:23;;;;;;;;;;;;;;;;;;5082331;28;20636;-69
2022/02/11 11:56:50;;;;;;;;;;;;;;;;;;5087910;28;19916;-69
2022/02/11 11:59:16;;;;;;;;;;;;;;;;;;5087351;28;19948;-69
2022/02/11 12:01:42;;;;;;;;;;;;;;;;;;5087139;28;19908;-69
2022/02/11 12:04:08;;;;;;;;;;;;;;;;;;5084885;28;19987;-69
2022/02/11 12:06:35;;;;;;;;;;;;;;;;;;5079869;28;19915;-69
2022/02/11 12:09:01;;;;;;;;;;;;;;;;;;5079865;28;19912;-69
2022/02/11 12:11:27;;;;;;;;;;;;;;;;;;5082883;28;19916;-69
2022/02/11 12:13:57;;;;;;;;;;;;;;;;;;5092269;28;19920;-69
2022/02/11 12:16:24;;;;;;;;;;;;;;;;;;5092442;28;19908;-69
2022/02/11 12:18:50;;;;;;;;;;;;;;;;;;5088225;28;19915;-69
2022/02/11 12:21:16;;;;;;;;;;;;;;;;;;5084957;28;19904;-70
2022/02/11 12:29:12;;;;;;;;;;;;;;;;;;5091401;28;19954;-69
2022/02/11 12:31:39;;;;;;;;;;;;;;;;;;5092175;28;19957;-69
2022/02/11 12:34:05;;;;;;;;;;;;;;;;;;5092414;28;20404;-69
2022/02/11 12:36:31;;;;;;;;;;;;;;;;;;5093633;28;20030;-70
2022/02/11 12:38:58;;;;;;;;;;;;;;;;;;5079096;28;19919;-69
2022/02/11 12:41:24;;;;;;;;;;;;;;;;;;5070741;28;19904;-69
2022/02/11 12:43:51;;;;;;;;;;;;;;;;;;5090238;28;19922;-69
2022/02/11 12:46:17;;;;;;;;;;;;;;;;;;5090774;28;19908;-69
2022/02/11 12:48:46;;;;;;;;;;;;;;;;;;5090883;28;20394;-70
2022/02/11 12:51:15;;;;;;;;;;;;;;;;;;5095117;28;19966;-69
2022/02/11 12:53:41;;;;;;;;;;;;;;;;;;5094801;28;19919;-69
2022/02/11 12:56:08;;;;;;;;;;;;;;;;;;5095436;28;19919;-69
2022/02/11 12:58:35;;;;;;;;;;;;;;;;;;5093328;28;19926;-69
2022/02/11 13:01:01;;;;;;;;;;;;;;;;;;5075294;28;19908;-69
2022/02/11 13:03:28;;;;;;;;;;;;;;;;;;5070577;28;20019;-69
2022/02/11 13:05:55;;;;;;;;;;;;;;;;;;5082529;28;19963;-70
2022/02/11 13:08:21;;;;;;;;;;;;;;;;;;5089295;28;19904;-69
2022/02/11 13:10:48;;;;;;;;;;;;;;;;;;5087013;28;20432;-69
2022/02/11 13:13:14;;;;;;;;;;;;;;;;;;5079589;28;19955;-69
2022/02/11 13:15:44;;;;;;;;;;;;;;;;;;5093851;28;19912;-70
2022/02/11 13:18:11;;;;;;;;;;;;;;;;;;5075135;28;19987;-69
2022/02/11 13:20:37;;;;;;;;;;;;;;;;;;5075189;28;19904;-69
2022/02/11 13:23:03;;;;;;;;;;;;;;;;;;5076096;28;19909;-73
2022/02/11 13:25:33;;;;;;;;;;;;;;;;;;5081559;28;20033;-74
2022/02/11 13:27:59;;;;;;;;;;;;;;;;;;5069972;28;19904;-74
2022/02/11 13:30:25;;;;;;;;;;;;;;;;;;5069240;28;19991;-74
2022/02/11 13:32:51;;;;;;;;;;;;;;;;;;5069840;28;19905;-74
2022/02/11 13:35:18;;;;;;;;;;;;;;;;;;5073480;28;20490;-74
2022/02/11 13:37:45;;;;;;;;;;;;;;;;;;5074946;28;20335;-73
2022/02/11 13:40:11;;;;;;;;;;;;;;;;;;5090585;28;19908;-74
2022/02/11 13:42:37;;;;;;;;;;;;;;;;;;5095102;28;19915;-74
2022/02/11 13:45:05;;;;;;;;;;;;;;;;;;5094792;28;19904;-74
2022/02/11 13:47:32;;;;;;;;;;;;;;;;;;5089564;28;19906;-74
2022/02/11 13:49:58;;;;;;;;;;;;;;;;;;5089462;28;19908;-74
2022/02/11 13:55:11;;;;;;;;;;;;;;;;;;5089335;28;19966;-74
2022/02/11 13:57:37;;;;;;;;;;;;;;;;;;5093371;28;19931;-74
2022/02/11 14:00:03;;;;;;;;;;;;;;;;;;5094636;28;20275;-74
2022/02/11 14:02:29;;;;;;;;;;;;;;;;;;5094556;28;19915;-74
2022/02/11 14:04:56;;;;;;;;;;;;;;;;;;5094605;28;19947;-74
2022/02/11 14:07:22;;;;;;;;;;;;;;;;;;5094455;28;19904;-74
2022/02/11 14:09:48;;;;;;;;;;;;;;;;;;5077423;28;19966;-74
2022/02/11 14:12:14;;;;;;;;;;;;;;;;;;5068771;28;19913;-74
2022/02/11 14:14:41;;;;;;;;;;;;;;;;;;5068278;28;19921;-74
2022/02/11 14:17:07;;;;;;;;;;;;;;;;;;5068542;28;19905;-74
2022/02/11 14:19:38;;;;;;;;;;;;;;;;;;5078845;28;19908;-74
2022/02/11 14:22:04;;;;;;;;;;;;;;;;;;5094192;28;19912;-74
2022/02/11 14:24:30;;;;;;;;;;;;;;;;;;5094149;28;19949;-74
2022/02/11 14:26:56;;;;;;;;;;;;;;;;;;5094101;28;19904;-74
2022/02/11 14:29:23;;;;;;;;;;;;;;;;;;5093669;28;19986;-74
2022/02/11 14:31:49;;;;;;;;;;;;;;;;;;5089611;28;20407;-74
2022/02/11 14:34:15;;;;;;;;;;;;;;;;;;5088477;28;20278;-74
2022/02/11 14:36:42;;;;;;;;;;;;;;;;;;5088369;28;20373;-74
2022/02/11 14:39:08;;;;;;;;;;;;;;;;;;5088423;28;19911;-74
2022/02/11 14:41:47;;;;;;;;;;;;;;;;;;5092209;28;19911;-75
2022/02/11 14:44:13;;;;;;;;;;;;;;;;;;5094011;28;19904;-75
2022/02/11 14:46:39;;;;;;;;;;;;;;;;;;5093835;28;19904;-75
2022/02/11 14:49:05;;;;;;;;;;;;;;;;;;5091834;28;19904;-75
2022/02/11 14:51:34;;;;;;;;;;;;;;;;;;5073467;28;19904;-75
2022/02/11 14:54:02;;;;;;;;;;;;;;;;;;5068443;28;19916;-75
2022/02/11 14:56:28;;;;;;;;;;;;;;;;;;5067551;28;19915;-75
2022/02/11 14:58:54;;;;;;;;;;;;;;;;;;5067777;28;19905;-76
2022/02/11 15:01:21;;;;;;;;;;;;;;;;;;5049934;28;20275;-75
2022/02/11 15:03:47;;;;;;;;;;;;;;;;;;5071739;28;19904;-75
2022/02/11 15:06:13;;;;;;;;;;;;;;;;;;5073193;28;19904;-75
2022/02/11 15:08:39;;;;;;;;;;;;;;;;;;5073080;28;19905;-75
2022/02/11 15:11:06;;;;;;;;;;;;;;;;;;5072827;28;19908;-75
2022/02/11 15:13:32;;;;;;;;;;;;;;;;;;5072688;28;19924;-75
2022/02/11 15:15:58;;;;;;;;;;;;;;;;;;5068669;28;19955;-75
2022/02/11 15:18:24;;;;;;;;;;;;;;;;;;5068581;28;19912;-75
2022/02/11 15:20:51;;;;;;;;;;;;;;;;;;5067620;28;19904;-75
2022/02/11 15:23:19;;;;;;;;;;;;;;;;;;5067340;28;19946;-75
2022/02/11 15:25:45;;;;;;;;;;;;;;;;;;5071132;28;19904;-76
2022/02/11 15:28:11;;;;;;;;;;;;;;;;;;5072293;28;19904;-76
2022/02/11 15:30:38;;;;;;;;;;;;;;;;;;5073047;28;19908;-76
2022/02/11 15:33:04;;;;;;;;;;;;;;;;;;5072778;28;19948;-75
2022/02/11 15:35:30;;;;;;;;;;;;;;;;;;5072859;28;19913;-75
2022/02/11 15:37:56;;;;;;;;;;;;;;;;;;5068919;28;19908;-76
2022/02/11 15:40:23;;;;;;;;;;;;;;;;;;5067385;28;20355;-76
2022/02/11 15:42:50;;;;;;;;;;;;;;;;;;5066961;28;19911;-76
2022/02/11 15:45:16;;;;;;;;;;;;;;;;;;5066959;28;19927;-75
2022/02/11 15:47:43;;;;;;;;;;;;;;;;;;5071954;28;20397;-76
2022/02/11 15:50:09;;;;;;;;;;;;;;;;;;5090818;28;19961;-75
2022/02/11 15:52:35;;;;;;;;;;;;;;;;;;5090539;28;19954;-76
2022/02/11 15:55:01;;;;;;;;;;;;;;;;;;5092712;28;19916;-76
2022/02/11 15:57:28;;;;;;;;;;;;;;;;;;5075430;28;19947;-76
2022/02/11 15:59:54;;;;;;;;;;;;;;;;;;5068610;28;19958;-76
2022/02/11 16:02:21;;;;;;;;;;;;;;;;;;5066979;28;19927;-76
2022/02/11 16:04:47;;;;;;;;;;;;;;;;;;5067086;28;19928;-76
2022/02/11 16:07:14;;;;;;;;;;;;;;;;;;5067215;28;19991;-76
2022/02/11 16:09:40;;;;;;;;;;;;;;;;;;5069946;28;19904;-77
2022/02/11 16:12:06;;;;;;;;;;;;;;;;;;5090186;28;19908;-76
2022/02/11 16:14:32;;;;;;;;;;;;;;;;;;5096210;28;19915;-78
2022/02/11 16:17:02;;;;;;;;;;;;;;;;;;5097059;28;19904;-76
2022/02/11 16:19:28;;;;;;;;;;;;;;;;;;5096615;28;19904;-76
2022/02/11 16:21:54;;;;;;;;;;;;;;;;;;5089984;28;20279;-77
2022/02/11 16:24:20;;;;;;;;;;;;;;;;;;5079757;28;19911;-76
2022/02/11 16:26:47;;;;;;;;;;;;;;;;;;5091222;28;20398;-75
2022/02/11 16:29:13;;;;;;;;;;;;;;;;;;5077297;28;19904;-76
2022/02/11 16:31:39;;;;;;;;;;;;;;;;;;5072989;28;20271;-76
2022/02/11 16:34:05;;;;;;;;;;;;;;;;;;5089785;28;20035;-73
2022/02/11 16:36:36;;;;;;;;;;;;;;;;;;5096026;28;19904;-76
2022/02/11 16:39:02;;;;;;;;;;;;;;;;;;5096280;28;20055;-76
2022/02/11 16:41:29;;;;;;;;;;;;;;;;;;5096194;28;19911;-76
2022/02/11 16:43:55;;;;;;;;;;;;;;;;;;5090437;28;20634;-77
2022/02/11 16:46:21;;;;;;;;;;;;;;;;;;5070322;28;19911;-76
2022/02/11 16:48:47;;;;;;;;;;;;;;;;;;5070610;28;19911;-77
2022/02/11 16:51:14;;;;;;;;;;;;;;;;;;5090264;28;19904;-76
2022/02/11 16:53:40;;;;;;;;;;;;;;;;;;5092395;28;19915;-76
2022/02/11 16:56:06;;;;;;;;;;;;;;;;;;5096115;28;19938;-75
2022/02/11 16:58:32;;;;;;;;;;;;;;;;;;5095826;28;19900;-76
2022/02/11 17:00:59;;;;;;;;;;;;;;;;;;5074448;28;20355;-74
2022/02/11 17:03:25;;;;;;;;;;;;;;;;;;5085216;28;19998;-76
2022/02/11 17:05:51;;;;;;;;;;;;;;;;;;5091898;28;19913;-76
2022/02/11 17:08:18;;;;;;;;;;;;;;;;;;5074241;28;19947;-74
2022/02/11 17:10:46;;;;;;;;;;;;;;;;;;5086452;28;19911;-75
2022/02/11 17:13:14;;;;;;;;;;;;;;;;;;5090461;28;19919;-76
2022/02/11 17:15:40;;;;;;;;;;;;;;;;;;5092260;28;19991;-76
2022/02/11 17:18:08;;;;;;;;;;;;;;;;;;5088532;28;19911;-77
2022/02/11 17:20:35;;;;;;;;;;;;;;;;;;5075396;28;20573;-72
2022/02/11 17:23:01;;;;;;;;;;;;;;;;;;5074172;28;19904;-74
2022/02/11 17:25:27;;;;;;;;;;;;;;;;;;5075394;28;19908;-73
2022/02/11 17:27:55;;;;;;;;;;;;;;;;;;5073283;28;19987;-76
2022/02/11 17:30:21;;;;;;;;;;;;;;;;;;5070144;28;19904;-76
2022/02/11 17:32:47;;;;;;;;;;;;;;;;;;5070794;28;20266;-77
2022/02/11 17:35:13;;;;;;;;;;;;;;;;;;5077014;28;19919;-73
2022/02/11 17:37:40;;;;;;;;;;;;;;;;;;5091910;28;19914;-76
2022/02/11 17:40:06;;;;;;;;;;;;;;;;;;5095794;28;19911;-77
2022/02/11 17:42:32;;;;;;;;;;;;;;;;;;5095195;28;20408;-76
2022/02/11 17:44:59;;;;;;;;;;;;;;;;;;5095063;28;20255;-73
2022/02/11 17:47:25;;;;;;;;;;;;;;;;;;5095200;28;19906;-76
2022/02/11 17:49:51;;;;;;;;;;;;;;;;;;5093538;28;20332;-76
2022/02/11 17:52:17;;;;;;;;;;;;;;;;;;5090083;28;19904;-73
2022/02/11 17:54:44;;;;;;;;;;;;;;;;;;5089930;28;20350;-75
2022/02/11 17:57:11;;;;;;;;;;;;;;;;;;5072193;28;20262;-76
2022/02/11 17:59:38;;;;;;;;;;;;;;;;;;5070095;28;19905;-75
2022/02/11 18:02:04;;;;;;;;;;;;;;;;;;5074376;28;19957;-76
2022/02/11 18:04:31;;;;;;;;;;;;;;;;;;5074717;28;19954;-75
2022/02/11 18:06:58;;;;;;;;;;;;;;;;;;5073992;28;20362;-76
2022/02/11 18:09:24;;;;;;;;;;;;;;;;;;5081964;28;19912;-76
2022/02/11 18:11:50;;;;;;;;;;;;;;;;;;5093603;28;19904;-76
2022/02/11 18:14:16;;;;;;;;;;;;;;;;;;5088698;28;19916;-76
2022/02/11 18:16:45;;;;;;;;;;;;;;;;;;5089591;28;20275;-75
2022/02/11 18:19:11;;;;;;;;;;;;;;;;;;5081151;28;19908;-72
2022/02/11 18:21:37;;;;;;;;;;;;;;;;;;5068915;28;19908;-73
2022/02/11 18:24:04;;;;;;;;;;;;;;;;;;5074121;28;19939;-72
2022/02/11 18:26:33;;;;;;;;;;;;;;;;;;5074131;28;19908;-71
2022/02/11 18:29:00;;;;;;;;;;;;;;;;;;5090135;28;19918;-75
2022/02/11 18:31:30;;;;;;;;;;;;;;;;;;5087051;28;19910;-76
2022/02/11 18:33:56;;;;;;;;;;;;;;;;;;5092665;28;19916;-76
2022/02/11 18:36:23;;;;;;;;;;;;;;;;;;5088341;28;19999;-75
2022/02/11 18:38:49;;;;;;;;;;;;;;;;;;5088985;28;19904;-76
2022/02/11 18:41:15;;;;;;;;;;;;;;;;;;5088909;28;20252;-77
2022/02/11 18:43:41;;;;;;;;;;;;;;;;;;5088766;28;19904;-77
2022/02/11 18:46:09;;;;;;;;;;;;;;;;;;5073388;28;19949;-76
2022/02/11 18:48:37;;;;;;;;;;;;;;;;;;5073669;28;19920;-76
2022/02/11 18:51:04;;;;;;;;;;;;;;;;;;5073211;28;19905;-76
2022/02/11 18:53:30;;;;;;;;;;;;;;;;;;5073234;28;19904;-76
2022/02/11 18:55:58;;;;;;;;;;;;;;;;;;5073341;28;20551;-76
2022/02/11 18:58:24;;;;;;;;;;;;;;;;;;5078384;28;19912;-77
2022/02/11 19:00:50;;;;;;;;;;;;;;;;;;5088531;28;19939;-76
2022/02/11 19:03:16;;;;;;;;;;;;;;;;;;5088361;28;19991;-77
2022/02/11 19:05:43;;;;;;;;;;;;;;;;;;5088395;28;19904;-76
2022/02/11 19:08:09;;;;;;;;;;;;;;;;;;5092615;28;20343;-75
2022/02/11 19:10:37;;;;;;;;;;;;;;;;;;5093375;28;19904;-75
2022/02/11 19:13:03;;;;;;;;;;;;;;;;;;5093106;28;19900;-76
2022/02/11 19:15:29;;;;;;;;;;;;;;;;;;5093248;28;20007;-75
2022/02/11 19:17:57;;;;;;;;;;;;;;;;;;5093312;28;19957;-75
2022/02/11 19:20:23;;;;;;;;;;;;;;;;;;5073944;28;19904;-75
2022/02/11 19:22:50;;;;;;;;;;;;;;;;;;5088058;28;19908;-77
2022/02/11 19:25:19;;;;;;;;;;;;;;;;;;5079232;28;20635;-77
2022/02/11 19:27:46;;;;;;;;;;;;;;;;;;5067933;28;20422;-76
2022/02/11 19:30:12;;;;;;;;;;;;;;;;;;5072139;28;19987;-76
2022/02/11 19:32:39;;;;;;;;;;;;;;;;;;5072825;28;19900;-76
2022/02/11 19:35:05;;;;;;;;;;;;;;;;;;5072806;28;20352;-76
2022/02/11 19:37:31;;;;;;;;;;;;;;;;;;5081822;28;19904;-77
2022/02/11 19:40:00;;;;;;;;;;;;;;;;;;5092627;28;19915;-77
2022/02/11 19:42:29;;;;;;;;;;;;;;;;;;5088124;28;19994;-77
2022/02/11 19:44:55;;;;;;;;;;;;;;;;;;5087238;28;19904;-76
2022/02/11 19:47:23;;;;;;;;;;;;;;;;;;5087909;28;20422;-75
2022/02/11 19:49:50;;;;;;;;;;;;;;;;;;5087800;28;19926;-75
2022/02/11 19:52:16;;;;;;;;;;;;;;;;;;5091705;28;20334;-75
2022/02/11 19:54:47;;;;;;;;;;;;;;;;;;5092324;28;20324;-76
2022/02/11 19:57:13;;;;;;;;;;;;;;;;;;5092917;28;19904;-75
2022/02/11 19:59:39;;;;;;;;;;;;;;;;;;5074408;28;20340;-76
2022/02/11 20:02:07;;;;;;;;;;;;;;;;;;5092707;28;20381;-75
2022/02/11 20:04:34;;;;;;;;;;;;;;;;;;5088344;28;19911;-76
2022/02/11 20:07:00;;;;;;;;;;;;;;;;;;5087679;28;19908;-77
2022/02/11 20:09:26;;;;;;;;;;;;;;;;;;5087317;28;20262;-77
2022/02/11 20:11:54;;;;;;;;;;;;;;;;;;5087588;28;19904;-77
2022/02/11 20:14:22;;;;;;;;;;;;;;;;;;5079260;28;19919;-77